createdAt,value
2023-06-04T00:02:22.891Z,5.68
2023-06-04T00:04:49.803Z,7.25
2023-06-04T00:07:16.730Z,7.95
2023-06-04T00:09:45.234Z,4.93
2023-06-04T00:12:12.306Z,7.03
2023-06-04T00:14:39.656Z,7.13
2023-06-04T00:17:07.155Z,6.07
2023-06-04T00:19:35.189Z,7.97
2023-06-04T00:22:02.159Z,5.57
2023-06-04T00:24:28.947Z,5.10
2023-06-04T00:26:55.748Z,4.13
2023-06-04T00:29:22.518Z,6.78
2023-06-04T00:31:50.114Z,9.10
2023-06-04T00:34:19.516Z,7.13
2023-06-04T00:36:46.434Z,7.30
2023-06-04T00:39:13.359Z,7.07
2023-06-04T00:41:40.433Z,5.80
2023-06-04T00:44:07.816Z,3.72
2023-06-04T00:46:39.363Z,11.55
2023-06-04T00:49:07.328Z,4.43
2023-06-04T00:51:34.415Z,7.80
2023-06-04T00:54:10.371Z,10.77
2023-06-04T00:56:38.491Z,9.40
2023-06-04T00:59:09.922Z,8.07
2023-06-04T01:01:41.917Z,9.73
2023-06-04T01:04:30.509Z,6.85
2023-06-04T01:06:59.924Z,9.88
2023-06-04T01:09:28.977Z,9.13
2023-06-04T01:11:59.390Z,8.63
2023-06-04T01:14:27.216Z,6.97
2023-06-04T01:17:04.544Z,12.65
2023-06-04T01:19:43.174Z,4.93
2023-06-04T01:22:26.071Z,6.88
2023-06-04T01:24:57.447Z,5.68
2023-06-04T01:27:24.853Z,12.82
2023-06-04T01:29:52.600Z,5.82
2023-06-04T01:32:19.791Z,7.50
2023-06-04T01:34:47.946Z,8.07
2023-06-04T01:37:14.846Z,7.72
2023-06-04T01:39:42.620Z,7.88
2023-06-04T01:42:10.038Z,9.20
2023-06-04T01:44:38.546Z,7.45
2023-06-04T01:47:05.522Z,6.50
2023-06-04T01:49:32.283Z,11.40
2023-06-04T01:51:59.039Z,7.22
2023-06-04T01:54:26.519Z,6.05
2023-06-04T01:56:53.596Z,7.55
2023-06-04T01:59:21.478Z,12.50
2023-06-04T02:01:48.304Z,9.85
2023-06-04T02:04:15.161Z,10.70
2023-06-04T02:06:41.958Z,8.30
2023-06-04T02:09:09.538Z,5.82
2023-06-04T02:11:36.422Z,7.18
2023-06-04T02:14:03.381Z,7.10
2023-06-04T02:16:30.223Z,7.93
2023-06-04T02:18:57.007Z,5.78
2023-06-04T02:21:24.357Z,11.82
2023-06-04T02:23:51.277Z,9.35
2023-06-04T02:26:18.584Z,5.47
2023-06-04T02:28:45.550Z,11.55
2023-06-04T02:31:12.319Z,5.78
2023-06-04T02:33:39.258Z,5.75
2023-06-04T02:36:06.707Z,11.43
2023-06-04T02:38:34.671Z,10.18
2023-06-04T02:41:01.565Z,5.13
2023-06-04T02:43:28.345Z,13.52
2023-06-04T02:45:55.142Z,9.40
2023-06-04T02:48:22.483Z,9.70
2023-06-04T02:50:49.294Z,6.43
2023-06-04T02:53:16.085Z,9.20
2023-06-04T02:55:42.985Z,8.85
2023-06-04T02:58:09.994Z,7.03
2023-06-04T03:00:36.814Z,12.55
2023-06-04T03:03:04.188Z,9.20
2023-06-04T03:05:33.224Z,14.80
2023-06-04T03:08:03.882Z,10.93
2023-06-04T03:10:32.369Z,5.28
2023-06-04T03:12:59.511Z,6.15
2023-06-04T03:15:26.378Z,11.98
2023-06-04T03:17:53.919Z,13.48
2023-06-04T03:20:20.733Z,5.90
2023-06-04T03:22:47.551Z,8.05
2023-06-04T03:25:14.989Z,10.00
2023-06-04T03:27:41.838Z,12.07
2023-06-04T03:30:09.372Z,9.20
2023-06-04T03:32:36.709Z,8.50
2023-06-04T03:35:04.498Z,8.38
2023-06-04T03:37:31.502Z,11.05
2023-06-04T03:39:58.262Z,7.82
2023-06-04T03:42:25.050Z,8.73
2023-06-04T03:44:52.390Z,8.27
2023-06-04T03:47:19.429Z,7.45
2023-06-04T03:49:46.300Z,11.75
2023-06-04T03:52:13.277Z,8.80
2023-06-04T03:54:40.643Z,8.80
2023-06-04T03:57:07.487Z,13.05
2023-06-04T03:59:34.368Z,13.38
2023-06-04T04:02:01.434Z,14.55
2023-06-04T04:04:28.414Z,8.45
2023-06-04T04:06:55.250Z,9.60
2023-06-04T04:09:22.016Z,12.30
2023-06-04T04:11:48.786Z,7.30
2023-06-04T04:14:15.889Z,15.90
2023-06-04T04:16:42.985Z,11.00
2023-06-04T04:19:10.007Z,9.88
2023-06-04T04:21:37.776Z,13.07
2023-06-04T04:24:05.566Z,10.13
2023-06-04T04:26:33.378Z,7.05
2023-06-04T04:29:01.151Z,10.50
2023-06-04T04:31:29.019Z,10.07
2023-06-04T04:33:59.205Z,14.45
2023-06-04T04:36:26.336Z,12.23
2023-06-04T04:38:55.987Z,12.60
2023-06-04T04:41:24.300Z,14.65
2023-06-04T04:43:53.891Z,11.00
2023-06-04T04:46:20.766Z,11.07
2023-06-04T04:48:48.030Z,17.77
2023-06-04T04:51:15.259Z,8.05
2023-06-04T04:53:42.699Z,19.60
2023-06-04T04:56:09.654Z,10.07
2023-06-04T04:58:36.440Z,15.27
2023-06-04T05:01:03.239Z,11.80
2023-06-04T05:03:30.060Z,13.10
2023-06-04T05:05:57.492Z,12.60
2023-06-04T05:08:24.553Z,8.05
2023-06-04T05:10:54.085Z,8.77
2023-06-04T05:13:21.640Z,16.33
2023-06-04T05:15:49.010Z,9.25
2023-06-04T05:18:17.632Z,9.20
2023-06-04T05:20:44.521Z,10.20
2023-06-04T05:23:13.595Z,9.18
2023-06-04T05:25:41.979Z,9.25
2023-06-04T05:28:08.807Z,10.15
2023-06-04T05:30:35.957Z,11.35
2023-06-04T05:33:02.803Z,11.48
2023-06-04T05:35:29.622Z,8.65
2023-06-04T05:37:56.444Z,10.68
2023-06-04T05:40:23.346Z,9.50
2023-06-04T05:42:50.554Z,10.32
2023-06-04T05:45:17.727Z,6.35
2023-06-04T05:47:44.724Z,10.10
2023-06-04T05:50:11.699Z,12.55
2023-06-04T05:52:38.947Z,12.35
2023-06-04T05:55:08.925Z,13.95
2023-06-04T05:57:36.258Z,13.82
2023-06-04T06:00:07.393Z,8.88
2023-06-04T06:02:35.948Z,12.18
2023-06-04T06:05:02.916Z,14.52
2023-06-04T06:07:29.842Z,10.90
2023-06-04T06:09:56.699Z,14.20
2023-06-04T06:12:23.673Z,12.18
2023-06-04T06:14:50.561Z,8.60
2023-06-04T06:17:17.820Z,10.45
2023-06-04T06:19:44.664Z,10.23
2023-06-04T06:22:11.531Z,8.10
2023-06-04T06:24:38.511Z,11.48
2023-06-04T06:27:06.183Z,14.32
2023-06-04T06:29:33.125Z,14.38
2023-06-04T06:32:00.498Z,11.35
2023-06-04T06:34:27.918Z,10.20
2023-06-04T06:36:54.779Z,10.63
2023-06-04T06:39:21.646Z,10.93
2023-06-04T06:41:48.771Z,12.45
2023-06-04T06:44:15.625Z,10.40
2023-06-04T06:46:42.457Z,10.43
2023-06-04T06:49:09.609Z,14.07
2023-06-04T06:51:36.613Z,15.07
2023-06-04T06:54:03.458Z,13.30
2023-06-04T06:56:31.769Z,9.43
2023-06-04T06:58:58.533Z,9.63
2023-06-04T07:01:25.371Z,11.52
2023-06-04T07:03:52.290Z,7.57
2023-06-04T07:06:19.271Z,11.98
2023-06-04T07:08:46.105Z,10.90
2023-06-04T07:11:13.446Z,8.80
2023-06-04T07:13:40.587Z,9.82
2023-06-04T07:16:07.614Z,9.85
2023-06-04T07:18:34.588Z,11.38
2023-06-04T07:21:01.423Z,12.98
2023-06-04T07:23:28.727Z,9.32
2023-06-04T07:25:55.727Z,9.65
2023-06-04T07:28:22.552Z,9.68
2023-06-04T07:30:49.376Z,4.93
2023-06-04T07:33:16.346Z,5.70
2023-06-04T07:35:44.441Z,7.07
2023-06-04T07:38:11.279Z,5.93
2023-06-04T07:40:38.168Z,5.20
2023-06-04T07:43:04.958Z,11.43
2023-06-04T07:45:34.871Z,5.50
2023-06-04T07:48:02.762Z,8.05
2023-06-04T07:50:29.640Z,8.20
2023-06-04T07:52:56.440Z,7.55
2023-06-04T07:55:23.726Z,10.52
2023-06-04T07:57:50.662Z,7.82
2023-06-04T08:00:19.100Z,5.95
2023-06-04T08:02:46.138Z,5.18
2023-06-04T08:05:15.007Z,4.78
2023-06-04T08:07:42.780Z,5.63
2023-06-04T08:10:10.322Z,7.13
2023-06-04T08:12:37.278Z,5.35
2023-06-04T08:15:04.667Z,6.82
2023-06-04T08:17:31.458Z,7.32
2023-06-04T08:19:58.512Z,6.55
2023-06-04T08:22:25.688Z,3.75
2023-06-04T08:24:52.479Z,3.90
2023-06-04T08:27:19.229Z,4.38
2023-06-04T08:29:45.997Z,4.88
2023-06-04T08:32:12.821Z,7.57
2023-06-04T08:34:39.572Z,8.73
2023-06-04T08:37:07.291Z,3.35
2023-06-04T08:39:34.682Z,4.18
2023-06-04T08:42:05.053Z,7.45
2023-06-04T08:44:31.940Z,4.57
2023-06-04T08:47:09.850Z,8.27
2023-06-04T08:49:37.865Z,6.35
2023-06-04T08:52:05.323Z,5.07
2023-06-04T08:54:33.468Z,7.15
2023-06-04T08:57:01.838Z,4.85
2023-06-04T08:59:29.449Z,8.38
2023-06-04T09:01:56.939Z,5.28
2023-06-04T09:04:24.305Z,5.65
2023-06-04T09:06:51.503Z,8.60
2023-06-04T09:09:20.079Z,6.47
2023-06-04T09:11:49.765Z,8.57
2023-06-04T09:14:19.995Z,7.32
2023-06-04T09:16:54.675Z,8.65
2023-06-04T09:19:22.554Z,8.32
2023-06-04T09:21:54.500Z,7.93
2023-06-04T09:24:26.932Z,7.93
2023-06-04T09:27:49.593Z,9.25
2023-06-04T09:30:16.636Z,9.88
2023-06-04T09:32:43.556Z,8.63
2023-06-04T09:35:15.713Z,11.38
2023-06-04T09:37:44.134Z,13.15
2023-06-04T09:40:11.644Z,9.95
2023-06-04T09:42:50.726Z,17.42
2023-06-04T09:45:29.934Z,7.40
2023-06-04T09:47:57.006Z,11.70
2023-06-04T09:50:28.900Z,12.50
2023-06-04T09:52:55.930Z,11.85
2023-06-04T09:55:23.842Z,10.63
2023-06-04T09:57:52.503Z,12.15
2023-06-04T10:00:22.152Z,14.98
2023-06-04T10:02:50.086Z,14.43
2023-06-04T10:05:17.625Z,16.73
2023-06-04T10:07:47.829Z,12.63
2023-06-04T10:10:21.423Z,13.35
2023-06-04T10:12:55.957Z,17.38
2023-06-04T10:15:22.803Z,13.40
2023-06-04T10:17:51.090Z,11.50
2023-06-04T10:20:19.376Z,12.98
2023-06-04T10:22:46.389Z,15.45
2023-06-04T10:25:13.920Z,13.20
2023-06-04T10:27:41.586Z,15.60
2023-06-04T10:30:09.566Z,12.57
2023-06-04T10:32:36.632Z,16.10
2023-06-04T10:35:09.376Z,14.32
2023-06-04T10:37:36.786Z,15.02
2023-06-04T10:40:06.645Z,16.08
2023-06-04T10:42:41.962Z,10.43
2023-06-04T10:45:11.215Z,14.02
2023-06-04T10:47:41.987Z,9.27
2023-06-04T10:50:14.236Z,11.70
2023-06-04T10:52:58.703Z,11.23
2023-06-04T10:55:26.946Z,13.65
2023-06-04T10:57:55.046Z,10.60
2023-06-04T11:00:22.556Z,12.88
2023-06-04T11:02:58.640Z,13.40
2023-06-04T11:05:44.060Z,11.75
2023-06-04T11:08:12.697Z,14.07
2023-06-04T11:10:44.784Z,13.70
2023-06-04T11:13:11.747Z,11.15
2023-06-04T11:15:50.093Z,13.35
2023-06-04T11:18:21.687Z,11.38
2023-06-04T11:20:51.167Z,9.57
2023-06-04T11:23:18.928Z,9.68
2023-06-04T11:25:47.003Z,12.15
2023-06-04T11:28:19.374Z,14.05
2023-06-04T11:31:04.611Z,14.23
2023-06-04T11:33:31.981Z,10.65
2023-06-04T11:35:58.831Z,12.20
2023-06-04T11:38:25.656Z,10.20
2023-06-04T11:41:02.973Z,8.40
2023-06-04T11:43:30.955Z,11.57
2023-06-04T11:45:59.729Z,12.43
2023-06-04T11:48:27.037Z,7.88
2023-06-04T11:50:54.824Z,6.45
2023-06-04T11:53:22.061Z,17.00
2023-06-04T11:55:49.049Z,7.53
2023-06-04T11:58:16.840Z,8.50
2023-06-04T12:00:43.799Z,7.05
2023-06-04T12:03:10.820Z,5.18
2023-06-04T12:05:37.842Z,10.95
2023-06-04T12:08:10.633Z,8.77
2023-06-04T12:10:41.788Z,4.13
2023-06-04T12:13:09.432Z,4.18
2023-06-04T12:15:36.482Z,6.57
2023-06-04T12:18:05.647Z,5.97
2023-06-04T12:20:40.612Z,7.72
2023-06-04T12:23:08.478Z,6.88
2023-06-04T12:25:38.759Z,5.47
2023-06-04T12:28:06.727Z,7.88
2023-06-04T12:30:41.202Z,4.72
2023-06-04T12:33:08.619Z,8.25
2023-06-04T12:35:36.198Z,4.22
2023-06-04T12:38:06.715Z,4.25
2023-06-04T12:40:33.829Z,4.05
2023-06-04T12:43:01.091Z,4.75
2023-06-04T12:45:29.959Z,6.03
2023-06-04T12:47:56.814Z,5.00
2023-06-04T12:50:23.628Z,5.43
2023-06-04T12:52:50.990Z,4.97
2023-06-04T12:55:17.768Z,4.20
2023-06-04T12:57:45.954Z,4.88
2023-06-04T13:00:13.878Z,5.00
2023-06-04T13:02:40.808Z,3.90
2023-06-04T13:05:08.733Z,4.28
2023-06-04T13:07:35.710Z,4.47
2023-06-04T13:10:02.623Z,7.88
2023-06-04T13:12:29.363Z,6.47
2023-06-04T13:14:57.194Z,5.65
2023-06-04T13:17:24.178Z,4.45
2023-06-04T13:19:51.394Z,4.43
2023-06-04T13:22:18.305Z,6.13
2023-06-04T13:24:45.205Z,9.10
2023-06-04T13:27:12.009Z,3.75
2023-06-04T13:29:38.906Z,5.35
2023-06-04T13:32:06.139Z,6.78
2023-06-04T13:34:33.421Z,7.85
2023-06-04T13:37:00.522Z,5.40
2023-06-04T13:39:27.629Z,5.43
2023-06-04T13:41:55.448Z,5.30
2023-06-04T13:44:27.442Z,3.88
2023-06-04T13:46:54.962Z,3.25
2023-06-04T13:49:22.462Z,3.35
2023-06-04T13:51:49.332Z,4.03
2023-06-04T13:54:16.151Z,4.40
2023-06-04T13:56:42.974Z,3.72
2023-06-04T13:59:09.759Z,5.05
2023-06-04T14:01:36.585Z,6.05
2023-06-04T14:04:07.607Z,4.75
2023-06-04T14:06:37.285Z,3.03
2023-06-04T14:09:05.150Z,4.80
2023-06-04T14:11:33.779Z,3.47
2023-06-04T14:14:00.768Z,5.10
2023-06-04T14:16:27.738Z,3.75
2023-06-04T14:18:54.859Z,4.28
2023-06-04T14:21:22.982Z,3.33
2023-06-04T14:23:51.499Z,5.53
2023-06-04T14:26:19.034Z,2.92
2023-06-04T14:28:46.063Z,4.72
2023-06-04T14:31:13.034Z,2.40
2023-06-04T14:33:39.971Z,3.55
2023-06-04T14:36:06.724Z,5.43
2023-06-04T14:38:33.588Z,6.03
2023-06-04T14:41:01.010Z,3.25
2023-06-04T14:43:27.817Z,4.97
2023-06-04T14:45:54.559Z,3.22
2023-06-04T14:48:21.435Z,3.35
2023-06-04T14:50:48.282Z,3.35
2023-06-04T14:53:15.094Z,1.95
2023-06-04T14:55:41.987Z,5.55
2023-06-04T14:58:09.398Z,1.92
2023-06-04T15:00:36.816Z,2.63
2023-06-04T15:03:04.353Z,5.93
2023-06-04T15:05:34.970Z,3.05
2023-06-04T15:08:03.101Z,2.92
2023-06-04T15:10:30.145Z,3.10
2023-06-04T15:12:57.855Z,2.40
2023-06-04T15:15:24.792Z,5.20
2023-06-04T15:17:51.996Z,2.60
2023-06-04T15:20:19.237Z,3.75
2023-06-04T15:22:46.662Z,3.30
2023-06-04T15:25:13.821Z,4.88
2023-06-04T15:27:42.113Z,6.28
2023-06-04T15:30:09.403Z,3.83
2023-06-04T15:32:36.623Z,4.75
2023-06-04T15:35:05.141Z,2.35
2023-06-04T15:37:32.161Z,2.53
2023-06-04T15:40:01.030Z,2.28
2023-06-04T15:42:28.263Z,4.60
2023-06-04T15:44:56.621Z,4.30
2023-06-04T15:47:23.633Z,2.88
2023-06-04T15:49:50.740Z,2.50
2023-06-04T15:52:17.867Z,2.58
2023-06-04T15:54:47.019Z,4.18
2023-06-04T15:57:14.653Z,3.65
2023-06-04T15:59:42.376Z,2.17
2023-06-04T16:02:09.340Z,5.18
2023-06-04T16:04:36.341Z,4.20
2023-06-04T16:07:03.877Z,3.58
2023-06-04T16:09:30.762Z,3.63
2023-06-04T16:11:58.132Z,4.05
2023-06-04T16:14:24.902Z,3.00
2023-06-04T16:16:51.873Z,3.75
2023-06-04T16:19:18.774Z,2.45
2023-06-04T16:21:45.845Z,3.95
2023-06-04T16:24:12.906Z,3.67
2023-06-04T16:26:39.880Z,2.97
2023-06-04T16:29:07.032Z,2.55
2023-06-04T16:31:34.267Z,3.88
2023-06-04T16:34:01.297Z,2.75
2023-06-04T16:36:28.167Z,5.50
2023-06-04T16:38:56.627Z,3.50
2023-06-04T16:41:23.760Z,2.88
2023-06-04T16:43:50.734Z,4.05
2023-06-04T16:46:17.617Z,2.72
2023-06-04T16:48:44.856Z,3.35
2023-06-04T16:51:12.690Z,2.40
2023-06-04T16:53:40.358Z,3.92
2023-06-04T16:56:07.476Z,4.40
2023-06-04T16:58:39.488Z,2.95
2023-06-04T17:01:09.689Z,2.50
2023-06-04T17:03:37.515Z,2.35
2023-06-04T17:06:08.072Z,3.90
2023-06-04T17:08:35.349Z,5.47
2023-06-04T17:11:02.242Z,4.03
2023-06-04T17:13:29.732Z,5.32
2023-06-04T17:15:56.612Z,2.58
2023-06-04T17:18:23.858Z,3.08
2023-06-04T17:20:50.757Z,3.35
2023-06-04T17:23:25.538Z,6.60
2023-06-04T17:25:53.488Z,7.63
2023-06-04T17:28:20.711Z,5.32
2023-06-04T17:30:47.800Z,1.90
2023-06-04T17:33:14.817Z,2.65
2023-06-04T17:35:41.871Z,2.97
2023-06-04T17:38:08.729Z,2.58
2023-06-04T17:40:35.583Z,2.53
2023-06-04T17:43:02.361Z,4.93
2023-06-04T17:45:31.590Z,3.20
2023-06-04T17:47:58.715Z,3.20
2023-06-04T17:50:26.076Z,4.75
2023-06-04T17:52:52.831Z,3.03
2023-06-04T17:55:20.178Z,4.07
2023-06-04T17:57:47.048Z,3.00
2023-06-04T18:00:15.007Z,3.00
2023-06-04T18:02:42.315Z,2.65
2023-06-04T18:05:10.321Z,3.60
2023-06-04T18:07:37.374Z,2.70
2023-06-04T18:10:04.677Z,3.50
2023-06-04T18:12:32.811Z,2.30
2023-06-04T18:15:01.317Z,4.15
2023-06-04T18:17:28.164Z,2.60
2023-06-04T18:19:55.015Z,5.55
2023-06-04T18:22:21.920Z,2.97
2023-06-04T18:24:48.742Z,2.55
2023-06-04T18:27:15.625Z,2.13
2023-06-04T18:29:47.141Z,2.30
2023-06-04T18:32:14.375Z,3.58
2023-06-04T18:34:41.179Z,2.35
2023-06-04T18:37:07.964Z,3.65
2023-06-04T18:39:34.883Z,4.15
2023-06-04T18:42:09.271Z,6.15
2023-06-04T18:44:45.382Z,4.97
2023-06-04T18:47:12.201Z,2.33
2023-06-04T18:49:38.986Z,3.17
2023-06-04T18:52:05.867Z,3.83
2023-06-04T18:54:32.823Z,2.38
2023-06-04T18:56:59.868Z,5.82
2023-06-04T18:59:27.028Z,2.42
2023-06-04T19:01:55.928Z,3.42
2023-06-04T19:04:22.889Z,4.38
2023-06-04T19:06:49.747Z,4.28
2023-06-04T19:09:16.864Z,4.07
2023-06-04T19:11:43.877Z,2.92
2023-06-04T19:14:10.709Z,3.30
2023-06-04T19:16:37.504Z,3.35
2023-06-04T19:19:08.729Z,3.58
2023-06-04T19:21:37.624Z,2.22
2023-06-04T19:24:05.308Z,4.00
2023-06-04T19:26:32.191Z,4.10
2023-06-04T19:28:58.963Z,2.88
2023-06-04T19:31:28.799Z,3.35
2023-06-04T19:33:56.576Z,3.63
2023-06-04T19:36:23.345Z,2.67
2023-06-04T19:38:50.190Z,2.35
2023-06-04T19:41:17.776Z,3.78
2023-06-04T19:43:44.740Z,3.08
2023-06-04T19:46:11.548Z,2.70
2023-06-04T19:48:39.525Z,2.67
2023-06-04T19:51:06.363Z,3.03
2023-06-04T19:53:33.228Z,4.28
2023-06-04T19:56:00.310Z,2.95
2023-06-04T19:58:28.009Z,3.53
2023-06-04T20:00:56.099Z,3.92
2023-06-04T20:03:24.275Z,3.05
2023-06-04T20:05:51.247Z,4.40
2023-06-04T20:08:18.243Z,2.85
2023-06-04T20:10:46.502Z,6.53
2023-06-04T20:13:13.318Z,2.92
2023-06-04T20:15:40.145Z,3.05
2023-06-04T20:18:07.506Z,2.78
2023-06-04T20:20:34.451Z,3.83
2023-06-04T20:23:01.234Z,4.95
2023-06-04T20:25:27.984Z,3.42
2023-06-04T20:27:54.768Z,3.15
2023-06-04T20:30:21.553Z,3.50
2023-06-04T20:32:49.784Z,8.60
2023-06-04T20:35:16.772Z,2.30
2023-06-04T20:37:43.628Z,3.10
2023-06-04T20:40:10.696Z,3.67
2023-06-04T20:42:37.498Z,2.30
2023-06-04T20:45:05.238Z,3.78
2023-06-04T20:47:32.085Z,2.67
2023-06-04T20:49:58.896Z,2.05
2023-06-04T20:52:25.744Z,4.53
2023-06-04T20:54:53.624Z,5.65
2023-06-04T20:57:20.384Z,2.67
2023-06-04T20:59:47.208Z,3.20
2023-06-04T21:02:14.103Z,4.15
2023-06-04T21:04:41.137Z,3.35
2023-06-04T21:07:08.012Z,2.95
2023-06-04T21:09:35.006Z,4.55
2023-06-04T21:12:01.769Z,2.30
2023-06-04T21:14:28.615Z,6.07
2023-06-04T21:16:55.525Z,4.20
2023-06-04T21:19:22.290Z,5.53
2023-06-04T21:21:49.099Z,6.57
2023-06-04T21:24:15.896Z,4.25
2023-06-04T21:26:42.671Z,2.80
2023-06-04T21:29:09.480Z,6.25
2023-06-04T21:31:36.400Z,2.72
2023-06-04T21:34:03.395Z,6.93
2023-06-04T21:36:30.612Z,3.70
2023-06-04T21:38:57.593Z,3.88
2023-06-04T21:41:24.531Z,4.65
2023-06-04T21:43:51.420Z,3.25
2023-06-04T21:46:19.069Z,3.25
2023-06-04T21:48:45.854Z,4.40
2023-06-04T21:51:13.428Z,5.45
2023-06-04T21:53:41.072Z,5.22
2023-06-04T21:56:08.030Z,5.80
2023-06-04T21:58:35.292Z,4.15
2023-06-04T22:01:02.189Z,5.68
2023-06-04T22:03:29.642Z,5.07
2023-06-04T22:05:56.560Z,4.40
2023-06-04T22:08:23.357Z,5.82
2023-06-04T22:10:50.194Z,2.83
2023-06-04T22:13:17.127Z,3.42
2023-06-04T22:15:44.222Z,7.50
2023-06-04T22:18:11.355Z,5.13
2023-06-04T22:20:38.235Z,5.28
2023-06-04T22:23:05.069Z,4.05
2023-06-04T22:25:31.861Z,4.00
2023-06-04T22:27:58.660Z,5.32
2023-06-04T22:30:25.630Z,4.80
2023-06-04T22:32:52.651Z,4.90
2023-06-04T22:35:19.717Z,5.00
2023-06-04T22:37:46.551Z,3.88
2023-06-04T22:40:14.400Z,6.25
2023-06-04T22:42:41.700Z,4.18
2023-06-04T22:45:09.338Z,4.93
2023-06-04T22:47:36.739Z,7.05
2023-06-04T22:50:03.939Z,6.78
2023-06-04T22:52:31.862Z,5.90
2023-06-04T22:54:58.754Z,4.95
2023-06-04T22:57:25.835Z,4.65
2023-06-04T22:59:53.323Z,5.18
2023-06-04T23:02:20.129Z,6.32
2023-06-04T23:04:47.020Z,6.00
2023-06-04T23:07:13.779Z,9.93
2023-06-04T23:09:40.808Z,4.45
2023-06-04T23:12:07.789Z,4.47
2023-06-04T23:14:34.552Z,5.32
2023-06-04T23:17:01.559Z,4.93
2023-06-04T23:19:28.637Z,4.97
2023-06-04T23:21:55.640Z,4.50
2023-06-04T23:24:22.437Z,7.10
2023-06-04T23:26:49.667Z,10.50
2023-06-04T23:29:16.490Z,6.80
2023-06-04T23:31:43.422Z,6.00
2023-06-04T23:34:10.288Z,7.65
2023-06-04T23:36:37.216Z,7.70
2023-06-04T23:39:05.222Z,5.25
2023-06-04T23:41:32.571Z,6.22
2023-06-04T23:43:59.372Z,5.10
2023-06-04T23:46:26.360Z,5.05
2023-06-04T23:48:53.203Z,5.13
2023-06-04T23:51:20.181Z,4.25
2023-06-04T23:53:47.534Z,5.93
2023-06-04T23:56:14.590Z,9.57
2023-06-04T23:58:41.777Z,6.78
